Time;durP1;ratioP1;P1;durP2;ratioP2;P2;SDS_P1;SDS_P2;PMS_P1;PMS_P2;Temp;Humidity;BMP_temperature;BMP_pressure;BME280_temperature;BME280_humidity;BME280_pressure;Samples;Min_cycle;Max_cycle;Signal;HPM_P1;HPM_P2
2021/12/15 00:04:02;;;;;;;27.87;18.43;;;;;;;;;;4992285;28;20247;-89
2021/12/15 00:06:47;;;;;;;27.33;17.73;;;;;;;;;;4984603;28;20223;-88
2021/12/15 00:12:21;;;;;;;28.93;17.53;;;;;;;;;;4992037;28;20283;-90
2021/12/15 00:14:54;;;;;;;29.13;18.00;;;;;;;;;;5000594;28;20269;-90
2021/12/15 00:17:28;;;;;;;28.53;18.63;;;;;;;;;;4990863;28;20261;-90
2021/12/15 00:20:00;;;;;;;27.73;16.93;;;;;;;;;;4990726;28;20195;-89
2021/12/15 00:22:34;;;;;;;30.23;18.00;;;;;;;;;;4995736;28;20215;-89
2021/12/15 00:28:09;;;;;;;31.17;17.20;;;;;;;;;;4992086;28;20227;-88
2021/12/15 00:30:41;;;;;;;28.63;16.73;;;;;;;;;;5002740;28;20254;-89
2021/12/15 00:33:17;;;;;;;29.83;18.07;;;;;;;;;;4990796;28;20283;-90
2021/12/15 00:35:44;;;;;;;28.57;17.47;;;;;;;;;;4995353;28;20215;-89
2021/12/15 00:38:12;;;;;;;30.47;18.23;;;;;;;;;;4994911;28;20200;-90
2021/12/15 00:40:40;;;;;;;31.40;18.33;;;;;;;;;;4988702;28;20227;-88
2021/12/15 00:43:08;;;;;;;27.30;17.60;;;;;;;;;;4996286;28;20203;-88
2021/12/15 00:45:36;;;;;;;28.07;17.17;;;;;;;;;;4989887;28;20218;-89
2021/12/15 00:48:04;;;;;;;29.20;17.90;;;;;;;;;;4998952;28;20283;-90
2021/12/15 00:50:33;;;;;;;28.33;17.03;;;;;;;;;;4985867;28;20227;-89
2021/12/15 00:53:01;;;;;;;29.43;18.97;;;;;;;;;;5001643;28;20211;-89
2021/12/15 00:55:29;;;;;;;26.47;16.90;;;;;;;;;;4985824;28;20235;-90
2021/12/15 00:57:58;;;;;;;28.90;17.20;;;;;;;;;;4993128;28;20223;-89
2021/12/15 01:00:28;;;;;;;29.03;17.77;;;;;;;;;;4991804;28;20226;-90
2021/12/15 01:02:55;;;;;;;28.27;17.30;;;;;;;;;;4987133;28;20239;-90
2021/12/15 01:05:32;;;;;;;27.03;17.93;;;;;;;;;;4989238;28;20282;-89
2021/12/15 01:08:00;;;;;;;27.97;16.63;;;;;;;;;;4982372;28;20257;-89
2021/12/15 01:10:41;;;;;;;25.97;15.83;;;;;;;;;;4979325;28;20314;-89
2021/12/15 01:21:25;;;;;;;26.67;16.40;;;;;;;;;;4984174;28;20239;-89
2021/12/15 01:23:52;;;;;;;25.43;14.87;;;;;;;;;;4987776;28;20344;-90
2021/12/15 01:26:20;;;;;;;24.13;15.97;;;;;;;;;;4984165;28;20207;-90
2021/12/15 01:28:51;;;;;;;22.17;15.27;;;;;;;;;;4987300;28;20223;-90
2021/12/15 01:31:18;;;;;;;22.50;14.97;;;;;;;;;;4992950;28;20227;-90
2021/12/15 01:33:46;;;;;;;25.40;15.50;;;;;;;;;;4985042;28;20266;-90
2021/12/15 01:36:14;;;;;;;24.50;16.23;;;;;;;;;;4983243;28;20200;-89
2021/12/15 01:38:42;;;;;;;22.93;15.23;;;;;;;;;;5007326;28;20190;-91
2021/12/15 01:41:18;;;;;;;24.77;17.43;;;;;;;;;;5034027;22;20269;-94
2021/12/15 01:46:51;;;;;;;25.47;15.93;;;;;;;;;;5028153;28;20229;-89
2021/12/15 01:46:55;;;;;;;26.27;16.03;;;;;;;;;;4999541;28;20203;-88
2021/12/15 01:49:24;;;;;;;22.40;15.47;;;;;;;;;;5010557;28;20210;-89
2021/12/15 01:51:52;;;;;;;24.40;16.33;;;;;;;;;;5013232;28;20321;-89
2021/12/15 01:54:21;;;;;;;22.83;15.90;;;;;;;;;;5012832;28;20211;-89
2021/12/15 01:56:48;;;;;;;24.17;15.90;;;;;;;;;;5014035;28;20212;-89
2021/12/15 01:59:17;;;;;;;24.53;15.03;;;;;;;;;;5013979;28;20199;-87
2021/12/15 02:01:46;;;;;;;22.93;16.07;;;;;;;;;;5015705;28;20320;-89
2021/12/15 02:04:16;;;;;;;22.33;14.97;;;;;;;;;;5017801;28;20301;-88
2021/12/15 02:06:44;;;;;;;25.60;15.53;;;;;;;;;;5018345;28;20215;-89
2021/12/15 02:09:12;;;;;;;25.23;15.60;;;;;;;;;;5018402;28;20279;-88
2021/12/15 02:11:40;;;;;;;23.50;14.43;;;;;;;;;;5017628;28;20222;-91
2021/12/15 02:14:07;;;;;;;26.77;16.37;;;;;;;;;;5018033;28;20203;-89
2021/12/15 02:16:34;;;;;;;26.33;15.80;;;;;;;;;;5018107;28;20219;-90
2021/12/15 02:19:03;;;;;;;28.70;17.07;;;;;;;;;;5018436;28;20222;-89
2021/12/15 02:21:32;;;;;;;25.60;16.60;;;;;;;;;;5043983;23;20262;-85
2021/12/15 02:24:00;;;;;;;30.60;17.67;;;;;;;;;;5003909;28;20298;-86
2021/12/15 02:26:28;;;;;;;26.70;16.83;;;;;;;;;;5002802;28;20202;-85
2021/12/15 02:28:57;;;;;;;31.53;18.37;;;;;;;;;;4996829;28;20242;-85
2021/12/15 02:31:36;;;;;;;28.80;19.30;;;;;;;;;;5005776;28;20219;-85
2021/12/15 02:34:19;;;;;;;30.87;17.13;;;;;;;;;;5010643;28;20209;-85
2021/12/15 02:37:16;;;;;;;28.13;17.43;;;;;;;;;;5015463;28;20210;-86
2021/12/15 02:39:44;;;;;;;32.13;18.23;;;;;;;;;;5011939;28;20230;-86
2021/12/15 02:42:11;;;;;;;31.33;17.67;;;;;;;;;;5016016;28;20227;-86
2021/12/15 02:44:43;;;;;;;26.67;16.50;;;;;;;;;;5017443;28;20227;-87
2021/12/15 02:47:10;;;;;;;31.20;18.57;;;;;;;;;;5017598;28;20223;-86
2021/12/15 02:49:37;;;;;;;29.30;16.93;;;;;;;;;;5016917;28;20222;-86
2021/12/15 02:52:06;;;;;;;29.23;17.70;;;;;;;;;;5016927;28;20246;-86
2021/12/15 02:54:34;;;;;;;27.10;16.83;;;;;;;;;;5016232;28;20222;-86
2021/12/15 02:57:06;;;;;;;24.77;16.23;;;;;;;;;;5008733;28;20203;-86
2021/12/15 02:59:42;;;;;;;28.77;17.00;;;;;;;;;;4994820;28;20215;-86
2021/12/15 03:02:19;;;;;;;28.33;17.50;;;;;;;;;;4995065;28;20283;-86
2021/12/15 03:04:50;;;;;;;25.30;16.83;;;;;;;;;;4995032;28;20235;-86
2021/12/15 03:07:28;;;;;;;23.17;16.73;;;;;;;;;;4995275;28;20251;-88
2021/12/15 03:15:33;;;;;;;24.37;15.60;;;;;;;;;;4994905;28;20205;-87
2021/12/15 03:18:02;;;;;;;24.67;15.57;;;;;;;;;;4994978;28;20226;-86
2021/12/15 03:20:31;;;;;;;25.47;16.23;;;;;;;;;;4994390;28;20608;-86
2021/12/15 03:23:00;;;;;;;26.00;17.07;;;;;;;;;;4994453;28;20227;-85
2021/12/15 03:25:30;;;;;;;23.53;15.93;;;;;;;;;;4988165;28;20226;-86
2021/12/15 03:33:38;;;;;;;23.47;15.90;;;;;;;;;;4964771;28;20203;-86
2021/12/15 03:36:10;;;;;;;25.40;16.73;;;;;;;;;;4995030;28;20207;-86
2021/12/15 03:38:40;;;;;;;24.97;16.20;;;;;;;;;;4994561;28;20196;-86
2021/12/15 03:41:08;;;;;;;23.90;16.00;;;;;;;;;;4993100;28;20254;-87
2021/12/15 03:43:37;;;;;;;24.90;16.73;;;;;;;;;;4994554;28;20242;-87
2021/12/15 03:46:06;;;;;;;21.33;15.60;;;;;;;;;;4994032;28;20298;-87
2021/12/15 03:48:35;;;;;;;25.33;17.20;;;;;;;;;;4994245;28;20274;-86
2021/12/15 03:51:03;;;;;;;22.43;16.03;;;;;;;;;;4993415;28;20326;-85
2021/12/15 03:53:30;;;;;;;23.10;16.03;;;;;;;;;;4994829;28;20222;-86
2021/12/15 03:56:01;;;;;;;22.77;15.70;;;;;;;;;;4994226;28;20290;-86
2021/12/15 03:58:28;;;;;;;23.47;15.60;;;;;;;;;;4993041;28;20205;-86
2021/12/15 04:00:57;;;;;;;20.43;15.30;;;;;;;;;;4993250;28;20278;-86
2021/12/15 04:03:26;;;;;;;22.40;16.00;;;;;;;;;;4994495;28;20211;-86
2021/12/15 04:05:54;;;;;;;23.97;16.10;;;;;;;;;;4994437;28;20226;-85
2021/12/15 04:08:21;;;;;;;23.77;15.87;;;;;;;;;;4994513;28;20261;-86
2021/12/15 04:10:48;;;;;;;23.73;16.33;;;;;;;;;;4993211;28;20265;-86
2021/12/15 04:13:17;;;;;;;21.93;15.07;;;;;;;;;;5008664;28;20207;-87
2021/12/15 04:15:52;;;;;;;21.67;15.30;;;;;;;;;;5016954;28;20198;-86
2021/12/15 04:18:19;;;;;;;23.50;15.77;;;;;;;;;;5013581;28;20202;-86
2021/12/15 04:20:47;;;;;;;21.43;15.07;;;;;;;;;;5000192;28;20230;-85
2021/12/15 04:23:19;;;;;;;22.10;15.60;;;;;;;;;;4993044;28;20285;-86
2021/12/15 04:25:47;;;;;;;21.97;14.97;;;;;;;;;;4994913;28;20207;-86
2021/12/15 04:28:15;;;;;;;21.87;15.17;;;;;;;;;;4995228;28;20882;-86
2021/12/15 04:30:47;;;;;;;22.20;16.00;;;;;;;;;;4993440;28;20263;-86
2021/12/15 04:33:19;;;;;;;23.00;15.70;;;;;;;;;;4994141;28;20207;-88
2021/12/15 04:35:47;;;;;;;21.57;16.07;;;;;;;;;;4993850;28;20284;-85
2021/12/15 04:38:15;;;;;;;24.17;15.73;;;;;;;;;;4993678;28;20200;-86
2021/12/15 04:40:42;;;;;;;20.23;14.23;;;;;;;;;;4993330;28;20227;-86
2021/12/15 04:43:10;;;;;;;24.17;16.67;;;;;;;;;;4993538;28;20286;-85
2021/12/15 04:45:38;;;;;;;22.90;16.63;;;;;;;;;;4994351;28;20217;-85
2021/12/15 04:48:07;;;;;;;21.87;15.57;;;;;;;;;;4994346;28;20258;-85
2021/12/15 04:50:35;;;;;;;20.50;14.67;;;;;;;;;;4988107;28;20274;-85
2021/12/15 04:53:03;;;;;;;21.57;14.80;;;;;;;;;;4987027;28;20250;-85
2021/12/15 04:55:31;;;;;;;20.33;14.73;;;;;;;;;;4987557;28;20211;-85
2021/12/15 04:57:59;;;;;;;22.23;16.03;;;;;;;;;;4994390;28;20282;-85
2021/12/15 05:00:29;;;;;;;20.77;14.90;;;;;;;;;;4994464;28;20242;-86
2021/12/15 05:02:56;;;;;;;19.10;14.60;;;;;;;;;;4998103;28;20218;-85
2021/12/15 05:05:26;;;;;;;19.60;14.03;;;;;;;;;;5002051;28;20226;-85
2021/12/15 05:07:54;;;;;;;18.57;14.43;;;;;;;;;;4993792;28;20322;-85
2021/12/15 05:10:22;;;;;;;16.90;13.07;;;;;;;;;;4993156;28;20246;-86
2021/12/15 05:12:50;;;;;;;18.47;12.77;;;;;;;;;;4993387;28;20358;-86
2021/12/15 05:15:17;;;;;;;18.00;12.80;;;;;;;;;;4993513;28;20663;-86
2021/12/15 05:17:45;;;;;;;16.33;12.17;;;;;;;;;;4993658;28;20203;-86
2021/12/15 05:20:13;;;;;;;16.63;12.87;;;;;;;;;;4991002;28;20205;-87
2021/12/15 05:22:41;;;;;;;15.67;12.03;;;;;;;;;;4992437;28;20715;-86
2021/12/15 05:25:12;;;;;;;20.60;13.30;;;;;;;;;;4992898;28;20226;-86
2021/12/15 05:27:40;;;;;;;16.80;12.97;;;;;;;;;;4992621;28;20206;-86
2021/12/15 05:30:09;;;;;;;17.90;13.27;;;;;;;;;;4992153;28;20299;-87
2021/12/15 05:32:37;;;;;;;17.67;13.17;;;;;;;;;;4992963;28;20314;-86
2021/12/15 05:35:04;;;;;;;17.23;13.27;;;;;;;;;;4993037;28;20235;-86
2021/12/15 05:37:32;;;;;;;14.83;11.57;;;;;;;;;;4992927;28;20302;-87
2021/12/15 05:40:01;;;;;;;18.47;13.43;;;;;;;;;;4993050;28;20207;-86
2021/12/15 05:42:28;;;;;;;16.67;12.90;;;;;;;;;;4993545;28;20223;-86
2021/12/15 05:44:56;;;;;;;16.27;12.93;;;;;;;;;;4993773;28;20243;-87
2021/12/15 05:47:25;;;;;;;15.03;11.77;;;;;;;;;;4992308;28;20233;-86
2021/12/15 05:49:53;;;;;;;15.13;12.10;;;;;;;;;;4992149;28;20253;-87
2021/12/15 05:52:21;;;;;;;16.33;12.03;;;;;;;;;;4992065;28;20305;-87
2021/12/15 05:54:48;;;;;;;16.47;12.43;;;;;;;;;;4992788;28;20295;-87
2021/12/15 05:57:17;;;;;;;15.13;12.30;;;;;;;;;;4993119;28;20274;-87
2021/12/15 05:59:44;;;;;;;14.70;11.90;;;;;;;;;;4992151;28;20294;-86
2021/12/15 06:02:11;;;;;;;17.40;12.77;;;;;;;;;;4993133;28;20308;-88
2021/12/15 06:04:39;;;;;;;17.77;14.10;;;;;;;;;;4992661;28;20242;-87
2021/12/15 06:07:06;;;;;;;17.37;12.87;;;;;;;;;;4993000;28;20266;-87
2021/12/15 06:09:34;;;;;;;15.93;12.37;;;;;;;;;;4992556;28;20227;-87
2021/12/15 06:12:02;;;;;;;15.13;12.23;;;;;;;;;;4993075;28;20286;-87
2021/12/15 06:14:31;;;;;;;16.70;12.73;;;;;;;;;;4991281;28;20234;-88
2021/12/15 06:16:59;;;;;;;17.07;13.00;;;;;;;;;;4991717;28;20230;-87
2021/12/15 06:19:32;;;;;;;18.43;13.10;;;;;;;;;;4992083;28;20242;-87
2021/12/15 06:22:00;;;;;;;16.57;12.80;;;;;;;;;;4992558;28;20308;-87
2021/12/15 06:24:28;;;;;;;17.37;13.27;;;;;;;;;;4992347;28;20242;-88
2021/12/15 06:30:01;;;;;;;15.80;13.10;;;;;;;;;;4994219;28;20214;-88
2021/12/15 06:32:28;;;;;;;16.30;11.87;;;;;;;;;;4994024;28;20223;-87
2021/12/15 06:34:56;;;;;;;16.30;12.77;;;;;;;;;;4992804;28;20282;-88
2021/12/15 06:37:23;;;;;;;16.20;12.97;;;;;;;;;;4994546;28;20293;-88
2021/12/15 06:39:50;;;;;;;17.63;13.20;;;;;;;;;;4992852;28;20263;-88
2021/12/15 06:42:17;;;;;;;15.50;12.23;;;;;;;;;;4992926;28;20220;-88
2021/12/15 06:44:46;;;;;;;20.97;15.33;;;;;;;;;;4992940;28;20208;-88
2021/12/15 06:47:47;;;;;;;20.27;15.50;;;;;;;;;;4992832;28;20290;-87
2021/12/15 06:58:26;;;;;;;14.93;12.37;;;;;;;;;;4993978;28;20233;-88
2021/12/15 07:00:55;;;;;;;13.70;11.17;;;;;;;;;;5007924;28;20238;-86
2021/12/15 07:03:27;;;;;;;13.93;11.73;;;;;;;;;;5001812;28;20222;-87
2021/12/15 07:05:56;;;;;;;14.10;11.73;;;;;;;;;;5000910;28;20206;-88
2021/12/15 07:08:24;;;;;;;12.47;10.87;;;;;;;;;;5000711;28;20195;-87
2021/12/15 07:10:53;;;;;;;13.17;11.17;;;;;;;;;;5002281;28;20207;-86
2021/12/15 07:13:20;;;;;;;11.60;10.03;;;;;;;;;;5002762;28;20242;-85
2021/12/15 07:15:49;;;;;;;11.50;10.07;;;;;;;;;;5002717;28;20283;-86
2021/12/15 07:18:26;;;;;;;13.03;10.83;;;;;;;;;;5002847;28;20202;-86
2021/12/15 07:21:04;;;;;;;13.43;11.10;;;;;;;;;;5006144;28;20229;-86
2021/12/15 07:23:32;;;;;;;12.30;9.93;;;;;;;;;;5003322;28;20702;-86
2021/12/15 07:25:59;;;;;;;12.50;10.53;;;;;;;;;;5013677;28;20223;-87
2021/12/15 07:28:26;;;;;;;13.90;11.13;;;;;;;;;;5010561;28;20277;-86
2021/12/15 07:30:54;;;;;;;15.17;10.97;;;;;;;;;;5006643;28;20203;-87
2021/12/15 07:33:22;;;;;;;15.27;12.77;;;;;;;;;;5011741;28;20266;-87
2021/12/15 07:35:49;;;;;;;15.67;12.70;;;;;;;;;;5005393;28;20200;-87
2021/12/15 07:38:20;;;;;;;14.47;12.80;;;;;;;;;;5004485;28;20218;-90
2021/12/15 07:40:48;;;;;;;15.40;13.13;;;;;;;;;;5004037;28;20318;-90
2021/12/15 07:43:23;;;;;;;16.33;13.53;;;;;;;;;;5005002;28;20203;-87
2021/12/15 07:45:52;;;;;;;14.73;12.60;;;;;;;;;;5004720;28;20290;-84
2021/12/15 07:48:21;;;;;;;15.23;12.87;;;;;;;;;;5016190;28;20195;-83
2021/12/15 07:50:49;;;;;;;14.80;13.00;;;;;;;;;;5007104;28;20218;-85
2021/12/15 07:53:19;;;;;;;13.43;11.20;;;;;;;;;;4996776;28;20233;-83
2021/12/15 07:55:46;;;;;;;14.67;11.50;;;;;;;;;;4994378;28;20230;-84
2021/12/15 07:58:14;;;;;;;14.97;12.23;;;;;;;;;;4999590;28;20207;-85
2021/12/15 08:00:42;;;;;;;15.83;12.20;;;;;;;;;;5000957;28;20242;-88
2021/12/15 08:03:10;;;;;;;17.07;12.50;;;;;;;;;;4998275;28;20221;-82
2021/12/15 08:05:38;;;;;;;15.30;12.23;;;;;;;;;;4996857;28;20275;-82
2021/12/15 08:08:06;;;;;;;15.37;12.93;;;;;;;;;;4998665;28;20240;-82
2021/12/15 08:10:35;;;;;;;15.37;11.63;;;;;;;;;;4996214;28;20247;-83
2021/12/15 08:13:03;;;;;;;16.37;13.00;;;;;;;;;;4995952;28;20226;-81
2021/12/15 08:15:30;;;;;;;15.33;12.40;;;;;;;;;;4997319;28;20282;-81
2021/12/15 08:17:57;;;;;;;15.57;12.37;;;;;;;;;;4998189;28;20281;-82
2021/12/15 08:20:26;;;;;;;15.97;12.13;;;;;;;;;;4997865;28;20262;-82
2021/12/15 08:22:53;;;;;;;15.23;12.40;;;;;;;;;;4996808;28;20231;-83
2021/12/15 08:25:21;;;;;;;19.07;12.93;;;;;;;;;;5004314;28;20207;-85
2021/12/15 08:27:50;;;;;;;15.67;12.70;;;;;;;;;;5000272;28;20231;-81
2021/12/15 08:30:20;;;;;;;14.93;11.87;;;;;;;;;;5001233;28;20258;-82
2021/12/15 08:32:48;;;;;;;14.03;11.50;;;;;;;;;;4998367;28;20223;-81
2021/12/15 08:35:17;;;;;;;16.37;12.50;;;;;;;;;;4996969;28;20275;-81
2021/12/15 08:37:44;;;;;;;13.93;11.90;;;;;;;;;;4999160;28;20203;-81
2021/12/15 08:40:12;;;;;;;13.23;10.97;;;;;;;;;;5002499;28;20226;-86
2021/12/15 08:42:40;;;;;;;12.93;11.20;;;;;;;;;;4994154;28;20250;-85
2021/12/15 08:45:09;;;;;;;12.10;10.57;;;;;;;;;;4997988;28;20694;-87
2021/12/15 08:47:37;;;;;;;13.93;10.80;;;;;;;;;;4996975;28;20203;-86
2021/12/15 08:50:06;;;;;;;12.27;10.63;;;;;;;;;;4996580;28;20310;-87
2021/12/15 08:52:33;;;;;;;12.43;10.47;;;;;;;;;;4994626;28;20227;-86
2021/12/15 08:55:00;;;;;;;15.27;10.67;;;;;;;;;;4994670;28;20286;-85
2021/12/15 08:57:28;;;;;;;11.27;10.03;;;;;;;;;;4992245;28;20270;-86
2021/12/15 08:59:55;;;;;;;15.40;9.93;;;;;;;;;;4995070;28;20242;-86
2021/12/15 09:02:24;;;;;;;11.50;9.83;;;;;;;;;;4994797;28;20250;-85
2021/12/15 09:04:51;;;;;;;11.37;9.00;;;;;;;;;;4990838;28;20207;-85
2021/12/15 09:07:18;;;;;;;10.70;8.50;;;;;;;;;;4995061;28;20232;-85
2021/12/15 09:09:46;;;;;;;9.80;8.70;;;;;;;;;;4993774;28;20306;-85
2021/12/15 09:12:14;;;;;;;10.30;8.03;;;;;;;;;;4997959;28;20326;-85
2021/12/15 09:14:41;;;;;;;11.93;8.57;;;;;;;;;;4996992;28;20199;-85
2021/12/15 09:17:08;;;;;;;10.40;8.33;;;;;;;;;;4995827;28;20210;-86
2021/12/15 09:19:37;;;;;;;11.23;8.40;;;;;;;;;;4994828;28;20235;-86
2021/12/15 09:22:05;;;;;;;10.03;8.00;;;;;;;;;;4994966;28;20250;-86
2021/12/15 09:24:32;;;;;;;9.63;7.33;;;;;;;;;;4995445;28;20203;-86
2021/12/15 09:27:00;;;;;;;9.13;8.20;;;;;;;;;;4995147;28;20265;-86
2021/12/15 09:29:27;;;;;;;8.33;7.10;;;;;;;;;;4994435;28;20254;-86
2021/12/15 09:31:55;;;;;;;9.17;7.13;;;;;;;;;;4994680;28;20634;-87
2021/12/15 09:34:22;;;;;;;9.17;7.10;;;;;;;;;;4995641;28;20294;-87
2021/12/15 09:36:52;;;;;;;10.50;7.33;;;;;;;;;;4993015;28;20231;-86
2021/12/15 09:39:21;;;;;;;9.20;6.47;;;;;;;;;;4996600;28;20195;-85
2021/12/15 09:41:49;;;;;;;8.07;6.33;;;;;;;;;;4999685;28;20223;-84
2021/12/15 09:44:20;;;;;;;7.83;6.20;;;;;;;;;;5003153;28;20706;-84
2021/12/15 10:03:28;;;;;;;10.00;6.47;;;;;;;;;;4965788;28;20211;-85
2021/12/15 10:06:17;;;;;;;6.97;6.00;;;;;;;;;;4991318;28;20199;-86
2021/12/15 10:19:57;;;;;;;8.53;6.00;;;;;;;;;;4935263;29;20201;-86
2021/12/15 10:22:31;;;;;;;6.93;5.70;;;;;;;;;;4977379;28;20235;-86
2021/12/15 10:25:01;;;;;;;9.03;5.90;;;;;;;;;;5002438;28;20203;-85
2021/12/15 10:27:44;;;;;;;7.43;5.93;;;;;;;;;;5001917;28;20231;-85
2021/12/15 10:30:18;;;;;;;6.17;5.57;;;;;;;;;;4999358;28;20277;-85
2021/12/15 10:32:47;;;;;;;7.97;5.70;;;;;;;;;;4995735;28;20253;-86
2021/12/15 10:35:15;;;;;;;8.60;6.00;;;;;;;;;;5006173;28;20212;-84
2021/12/15 10:37:43;;;;;;;6.03;5.43;;;;;;;;;;5013679;28;20207;-83
2021/12/15 10:40:16;;;;;;;9.30;5.70;;;;;;;;;;5013978;28;20214;-82
2021/12/15 10:42:43;;;;;;;7.70;5.30;;;;;;;;;;5008931;28;20219;-85
2021/12/15 10:45:12;;;;;;;6.40;5.27;;;;;;;;;;5002168;28;20230;-85
2021/12/15 10:47:43;;;;;;;7.30;4.90;;;;;;;;;;4999435;28;20214;-88
2021/12/15 10:50:15;;;;;;;8.90;5.17;;;;;;;;;;4999176;28;20259;-89
2021/12/15 10:52:53;;;;;;;5.80;4.33;;;;;;;;;;4999779;28;20321;-89
2021/12/15 10:55:22;;;;;;;8.97;4.03;;;;;;;;;;4999298;28;20206;-90
2021/12/15 10:57:49;;;;;;;6.22;4.32;;;;;;;;;;4999067;28;20456;-88
2021/12/15 11:00:19;;;;;;;4.87;4.37;;;;;;;;;;4997784;28;20230;-88
2021/12/15 11:02:48;;;;;;;8.03;6.00;;;;;;;;;;4998751;28;20289;-88
2021/12/15 11:05:16;;;;;;;6.57;4.20;;;;;;;;;;4997462;28;20242;-89
2021/12/15 11:07:44;;;;;;;4.43;4.03;;;;;;;;;;4997959;28;20239;-86
2021/12/15 11:10:13;;;;;;;8.67;4.50;;;;;;;;;;4997735;28;20246;-88
2021/12/15 11:12:44;;;;;;;8.37;4.47;;;;;;;;;;4998767;28;20257;-88
2021/12/15 11:15:14;;;;;;;5.30;4.57;;;;;;;;;;4997268;28;20204;-88
2021/12/15 11:17:42;;;;;;;5.73;5.13;;;;;;;;;;4997535;28;20230;-87
2021/12/15 11:20:12;;;;;;;4.73;4.33;;;;;;;;;;4996971;28;20311;-87
2021/12/15 11:22:44;;;;;;;9.77;5.10;;;;;;;;;;4998625;28;20242;-86
2021/12/15 11:25:14;;;;;;;6.93;4.77;;;;;;;;;;4997325;28;20235;-87
2021/12/15 11:27:43;;;;;;;9.30;5.40;;;;;;;;;;4997620;28;20250;-86
2021/12/15 11:30:14;;;;;;;5.13;4.63;;;;;;;;;;4997218;28;20256;-87
2021/12/15 11:32:44;;;;;;;6.30;4.97;;;;;;;;;;4997073;28;20321;-87
2021/12/15 11:35:15;;;;;;;5.70;5.10;;;;;;;;;;5008847;28;20282;-86
2021/12/15 11:37:50;;;;;;;6.23;5.40;;;;;;;;;;5003706;28;20208;-84
2021/12/15 11:40:23;;;;;;;5.53;4.83;;;;;;;;;;5005020;28;20261;-84
2021/12/15 11:42:52;;;;;;;5.73;5.23;;;;;;;;;;4999463;28;20707;-84
2021/12/15 11:45:19;;;;;;;5.90;5.30;;;;;;;;;;4999974;28;20215;-83
2021/12/15 11:47:47;;;;;;;6.27;5.67;;;;;;;;;;5000313;28;20203;-83
2021/12/15 11:50:16;;;;;;;6.13;5.53;;;;;;;;;;5005147;28;20220;-85
2021/12/15 11:52:48;;;;;;;8.60;5.23;;;;;;;;;;4993295;28;20215;-89
2021/12/15 11:55:25;;;;;;;6.40;5.60;;;;;;;;;;4996135;28;20604;-83
2021/12/15 11:57:54;;;;;;;7.30;6.23;;;;;;;;;;4996730;28;20230;-86
2021/12/15 12:00:23;;;;;;;6.50;5.90;;;;;;;;;;4998140;28;20203;-85
2021/12/15 12:02:53;;;;;;;6.33;5.73;;;;;;;;;;4991966;28;20226;-83
2021/12/15 12:05:22;;;;;;;7.70;7.10;;;;;;;;;;4997736;28;20294;-90
2021/12/15 12:11:14;;;;;;;8.43;7.40;;;;;;;;;;4983874;28;20306;-90
2021/12/15 12:13:49;;;;;;;7.27;6.67;;;;;;;;;;4991557;28;20202;-89
2021/12/15 12:16:18;;;;;;;7.13;6.43;;;;;;;;;;4995205;28;20206;-86
2021/12/15 12:18:45;;;;;;;9.93;7.40;;;;;;;;;;4994562;28;20618;-87
2021/12/15 12:21:13;;;;;;;7.90;6.27;;;;;;;;;;4996574;28;20720;-88
2021/12/15 12:23:45;;;;;;;7.23;6.47;;;;;;;;;;4989385;28;20204;-89
2021/12/15 12:26:12;;;;;;;13.93;12.57;;;;;;;;;;4990655;28;20199;-88
2021/12/15 12:28:42;;;;;;;12.37;7.53;;;;;;;;;;4988925;28;20196;-89
2021/12/15 12:31:20;;;;;;;11.10;10.00;;;;;;;;;;4997460;28;20257;-92
2021/12/15 12:33:49;;;;;;;6.77;6.03;;;;;;;;;;4986391;28;20275;-89
2021/12/15 12:36:18;;;;;;;7.70;6.63;;;;;;;;;;4984337;28;20336;-88
2021/12/15 12:38:49;;;;;;;7.20;5.83;;;;;;;;;;4989595;28;20215;-90
2021/12/15 12:41:17;;;;;;;7.00;6.23;;;;;;;;;;4986086;28;20226;-91
2021/12/15 12:43:47;;;;;;;6.67;6.07;;;;;;;;;;4986775;28;20235;-88
2021/12/15 12:46:21;;;;;;;7.30;6.47;;;;;;;;;;4981550;28;20227;-88
2021/12/15 12:49:16;;;;;;;6.63;5.93;;;;;;;;;;4991376;28;20261;-87
2021/12/15 13:00:02;;;;;;;5.60;5.10;;;;;;;;;;4993776;28;20203;-87
2021/12/15 13:02:43;;;;;;;5.67;5.27;;;;;;;;;;4995330;28;20226;-88
2021/12/15 13:05:25;;;;;;;5.90;5.40;;;;;;;;;;4991691;28;20204;-87
2021/12/15 13:07:54;;;;;;;6.03;5.47;;;;;;;;;;4993766;28;20227;-87
2021/12/15 13:10:23;;;;;;;7.27;5.53;;;;;;;;;;4983638;28;20226;-87
2021/12/15 13:12:50;;;;;;;5.93;5.00;;;;;;;;;;4992954;28;20280;-87
2021/12/15 13:15:19;;;;;;;7.67;5.30;;;;;;;;;;4996738;28;20438;-89
2021/12/15 13:17:58;;;;;;;5.20;4.80;;;;;;;;;;4994560;28;20220;-87
2021/12/15 13:20:26;;;;;;;12.17;6.43;;;;;;;;;;4997442;28;20203;-87
2021/12/15 13:23:07;;;;;;;7.97;5.83;;;;;;;;;;5012576;28;20214;-87
2021/12/15 13:28:47;;;;;;;5.93;5.43;;;;;;;;;;5009379;28;20183;-86
2021/12/15 13:31:16;;;;;;;11.50;6.23;;;;;;;;;;4999064;28;20229;-87
2021/12/15 13:33:50;;;;;;;5.97;5.43;;;;;;;;;;4992909;28;20206;-87
2021/12/15 13:36:21;;;;;;;7.00;6.10;;;;;;;;;;4998453;28;20203;-89
2021/12/15 13:38:52;;;;;;;5.20;4.80;;;;;;;;;;4992872;28;20218;-87
2021/12/15 13:41:30;;;;;;;8.40;5.40;;;;;;;;;;5001523;28;20245;-86
2021/12/15 13:44:01;;;;;;;5.50;5.10;;;;;;;;;;4994063;28;20267;-84
2021/12/15 13:46:47;;;;;;;7.87;5.47;;;;;;;;;;4999445;28;20250;-87
2021/12/15 13:49:24;;;;;;;5.93;5.33;;;;;;;;;;4992098;28;20202;-82
2021/12/15 13:51:56;;;;;;;7.10;6.47;;;;;;;;;;4991980;28;20218;-80
2021/12/15 13:54:46;;;;;;;5.20;4.80;;;;;;;;;;4998381;28;20199;-79
2021/12/15 13:57:21;;;;;;;7.00;5.33;;;;;;;;;;4999000;28;20202;-81
2021/12/15 13:59:50;;;;;;;7.60;4.90;;;;;;;;;;5001301;28;20209;-85
2021/12/15 14:02:19;;;;;;;7.37;5.40;;;;;;;;;;4996261;28;20226;-86
2021/12/15 14:04:48;;;;;;;7.60;5.53;;;;;;;;;;4998235;28;20225;-83
2021/12/15 14:07:34;;;;;;;5.47;4.97;;;;;;;;;;4994981;28;20266;-90
2021/12/15 14:10:04;;;;;;;10.27;5.30;;;;;;;;;;5000963;28;20211;-82
2021/12/15 14:12:52;;;;;;;16.90;5.60;;;;;;;;;;5000649;28;20253;-82
2021/12/15 14:15:34;;;;;;;6.17;4.90;;;;;;;;;;4997973;28;20234;-82
2021/12/15 14:18:08;;;;;;;4.97;4.53;;;;;;;;;;4999372;28;20217;-84
2021/12/15 14:20:38;;;;;;;4.63;4.23;;;;;;;;;;4999067;28;20210;-90
2021/12/15 14:23:06;;;;;;;12.27;5.00;;;;;;;;;;5001862;28;20242;-87
2021/12/15 14:25:35;;;;;;;6.47;4.70;;;;;;;;;;5008237;28;20207;-83
2021/12/15 14:28:06;;;;;;;5.17;4.67;;;;;;;;;;5000017;28;20203;-85
2021/12/15 14:30:33;;;;;;;5.63;4.40;;;;;;;;;;5001378;28;20203;-84
2021/12/15 14:33:00;;;;;;;4.70;4.30;;;;;;;;;;5001606;28;20310;-85
2021/12/15 14:35:29;;;;;;;4.80;4.30;;;;;;;;;;5000485;28;20261;-91
2021/12/15 14:37:57;;;;;;;5.00;4.60;;;;;;;;;;5000606;28;20625;-83
2021/12/15 14:40:24;;;;;;;4.67;4.30;;;;;;;;;;4998685;28;20262;-81
2021/12/15 14:42:51;;;;;;;5.30;4.63;;;;;;;;;;5000051;28;20277;-82
2021/12/15 14:45:18;;;;;;;6.40;5.17;;;;;;;;;;5001622;28;20302;-82
2021/12/15 14:47:46;;;;;;;5.30;4.80;;;;;;;;;;5001395;28;20194;-82
2021/12/15 14:50:14;;;;;;;5.90;5.40;;;;;;;;;;5000856;28;20230;-81
2021/12/15 14:52:44;;;;;;;5.30;4.90;;;;;;;;;;4999129;28;20257;-83
2021/12/15 14:55:13;;;;;;;5.80;5.30;;;;;;;;;;5003855;28;20203;-83
2021/12/15 14:57:40;;;;;;;6.53;6.03;;;;;;;;;;5000435;28;20258;-82
2021/12/15 15:00:10;;;;;;;6.23;5.63;;;;;;;;;;5000361;28;20275;-81
2021/12/15 15:02:38;;;;;;;6.63;5.93;;;;;;;;;;4999200;28;20274;-81
2021/12/15 15:05:07;;;;;;;5.93;5.07;;;;;;;;;;5002824;28;20211;-82
2021/12/15 15:07:37;;;;;;;5.17;4.67;;;;;;;;;;5005135;28;20275;-82
2021/12/15 15:10:08;;;;;;;5.40;4.90;;;;;;;;;;4998001;28;20235;-83
2021/12/15 15:12:36;;;;;;;5.40;4.90;;;;;;;;;;5001755;28;20256;-85
2021/12/15 15:15:05;;;;;;;5.40;4.90;;;;;;;;;;5003706;28;20227;-82
2021/12/15 15:17:39;;;;;;;5.10;4.70;;;;;;;;;;4999262;28;20218;-83
2021/12/15 15:20:12;;;;;;;5.70;5.20;;;;;;;;;;5002455;28;20227;-82
2021/12/15 15:22:40;;;;;;;6.47;5.87;;;;;;;;;;5001328;28;20290;-82
2021/12/15 15:25:10;;;;;;;6.57;6.07;;;;;;;;;;4996854;28;20204;-81
2021/12/15 15:27:38;;;;;;;6.67;5.67;;;;;;;;;;4996078;28;20200;-83
2021/12/15 15:30:11;;;;;;;6.20;5.70;;;;;;;;;;5000406;28;20227;-89
2021/12/15 15:32:40;;;;;;;5.80;5.30;;;;;;;;;;5000885;28;20255;-81
2021/12/15 15:35:10;;;;;;;6.50;5.80;;;;;;;;;;5007104;28;20230;-91
2021/12/15 15:37:37;;;;;;;5.60;5.10;;;;;;;;;;4997982;28;20297;-87
2021/12/15 15:40:08;;;;;;;6.10;5.43;;;;;;;;;;4997172;28;20199;-87
2021/12/15 15:42:36;;;;;;;6.10;5.60;;;;;;;;;;4996621;28;20223;-86
2021/12/15 15:45:05;;;;;;;5.87;5.37;;;;;;;;;;4997284;28;20223;-87
2021/12/15 15:47:32;;;;;;;7.17;6.13;;;;;;;;;;4997692;28;20261;-87
2021/12/15 15:50:01;;;;;;;6.53;5.73;;;;;;;;;;5001636;28;20230;-87
2021/12/15 15:52:28;;;;;;;7.20;5.73;;;;;;;;;;5001025;28;20231;-87
2021/12/15 15:54:56;;;;;;;6.37;5.77;;;;;;;;;;5002104;28;20230;-87
2021/12/15 15:57:23;;;;;;;6.50;5.90;;;;;;;;;;4998412;28;20211;-86
2021/12/15 15:59:53;;;;;;;6.07;5.57;;;;;;;;;;4998852;28;20262;-87
2021/12/15 16:02:20;;;;;;;5.73;5.23;;;;;;;;;;4997416;28;20254;-86
2021/12/15 16:04:48;;;;;;;5.87;5.37;;;;;;;;;;4998037;28;20196;-86
2021/12/15 16:07:17;;;;;;;6.80;6.20;;;;;;;;;;4996104;28;20195;-87